createdAt,value
2022-09-10T00:01:03.925Z,1011.836304
2022-09-10T00:02:50.391Z,1011.846863
2022-09-10T00:03:53.471Z,1011.773926
2022-09-10T00:04:50.095Z,1011.732178
2022-09-10T00:05:52.074Z,1011.764526
2022-09-10T00:08:45.679Z,1011.772339
2022-09-10T00:09:28.507Z,1011.718933
2022-09-10T00:10:26.439Z,1011.756592
2022-09-10T00:11:26.938Z,1011.789429
2022-09-10T00:12:25.724Z,1011.790405
2022-09-10T00:13:22.553Z,1011.788757
2022-09-10T00:14:18.690Z,1011.755493
2022-09-10T00:15:18.702Z,1011.730652
2022-09-10T00:16:12.916Z,1011.725342
2022-09-10T00:17:10.333Z,1011.89801
2022-09-10T00:18:03.589Z,1011.846008
2022-09-10T00:19:02.440Z,1011.918091
2022-09-10T00:21:02.174Z,1011.885437
2022-09-10T00:21:54.011Z,1011.865051
2022-09-10T00:22:54.715Z,1011.798645
2022-09-10T00:23:47.809Z,1011.883057
2022-09-10T00:24:46.279Z,1011.921326
2022-09-10T00:25:41.850Z,1011.897766
2022-09-10T00:26:41.501Z,1011.90448
2022-09-10T00:27:35.851Z,1011.942871
2022-09-10T00:28:34.561Z,1011.869385
2022-09-10T00:29:40.122Z,1011.812073
2022-09-10T00:30:38.074Z,1011.866089
2022-09-10T00:31:33.664Z,1011.888611
2022-09-10T00:32:32.031Z,1011.864746
2022-09-10T00:33:25.554Z,1011.872803
2022-09-10T00:34:24.137Z,1011.903137
2022-09-10T00:36:22.207Z,1011.936829
2022-09-10T00:37:18.508Z,1011.894531
2022-09-10T00:38:16.328Z,1011.870422
2022-09-10T00:39:21.456Z,1011.862854
2022-09-10T00:41:17.777Z,1011.842529
2022-09-10T00:42:15.991Z,1011.861267
2022-09-10T00:43:16.412Z,1011.845398
2022-09-10T00:44:13.981Z,1011.825134
2022-09-10T00:46:12.263Z,1011.876282
2022-09-10T00:47:13.446Z,1011.933228
2022-09-10T00:48:14.801Z,1011.890442
2022-09-10T00:49:07.856Z,1011.90625
2022-09-10T00:51:03.405Z,1011.883728
2022-09-10T00:52:08.778Z,1011.838013
2022-09-10T00:53:02.903Z,1011.842529
2022-09-10T00:54:03.458Z,1011.85376
2022-09-10T00:55:50.171Z,1011.870422
2022-09-10T00:56:27.542Z,1011.790344
2022-09-10T00:57:31.393Z,1011.880737
2022-09-10T00:58:33.059Z,1011.869385
2022-09-10T00:59:25.709Z,1011.857117
2022-09-10T01:01:22.413Z,1011.820801
2022-09-10T01:02:22.767Z,1011.824707
2022-09-10T01:03:17.303Z,1011.730652
2022-09-10T01:04:19.760Z,1011.869629
2022-09-10T01:05:14.991Z,1011.788513
2022-09-10T01:06:15.276Z,1011.826721
2022-09-10T01:07:12.473Z,1011.876282
2022-09-10T01:08:17.120Z,1011.833374
2022-09-10T01:09:12.410Z,1011.770996
2022-09-10T01:11:08.526Z,1011.798035
2022-09-10T01:12:11.235Z,1011.72821
2022-09-10T01:13:08.803Z,1011.774719
2022-09-10T01:14:09.723Z,1011.750549
2022-09-10T01:15:05.216Z,1011.731934
2022-09-10T01:16:09.783Z,1011.773621
2022-09-10T01:17:02.828Z,1011.738586
2022-09-10T01:18:02.129Z,1011.716125
2022-09-10T01:18:57.369Z,1011.719482
2022-09-10T01:19:58.388Z,1011.757935
2022-09-10T01:21:02.429Z,1011.726257
2022-09-10T01:22:03.319Z,1011.697815
2022-09-10T01:22:58.798Z,1011.663147
2022-09-10T01:24:01.285Z,1011.755432
2022-09-10T01:24:53.590Z,1011.720398
2022-09-10T01:25:57.371Z,1011.670776
2022-09-10T01:26:52.783Z,1011.701294
2022-09-10T01:27:52.762Z,1011.6427
2022-09-10T01:28:48.595Z,1011.661682
2022-09-10T01:29:45.864Z,1011.669678
2022-09-10T01:30:47.024Z,1011.634583
2022-09-10T01:31:43.727Z,1011.634583
2022-09-10T01:32:44.170Z,1011.6651
2022-09-10T01:34:29.509Z,1011.663147
2022-09-10T01:35:11.638Z,1011.668762
2022-09-10T01:36:13.319Z,1011.63501
2022-09-10T01:37:16.377Z,1011.63501
2022-09-10T01:38:23.982Z,1011.604126
2022-09-10T01:39:32.647Z,1011.511108
2022-09-10T01:40:38.765Z,1011.568665
2022-09-10T01:41:40.882Z,1011.597717
2022-09-10T01:42:45.479Z,1011.639221
2022-09-10T01:43:47.521Z,1011.650391
2022-09-10T01:44:53.168Z,1011.58197
2022-09-10T01:46:05.728Z,1011.617126
2022-09-10T01:47:02.146Z,1011.617126
2022-09-10T01:48:06.437Z,1011.577209
2022-09-10T01:49:02.725Z,1011.627319
2022-09-10T01:50:07.912Z,1011.637085
2022-09-10T01:51:04.507Z,1011.551575
2022-09-10T01:52:05.694Z,1011.569336
2022-09-10T01:53:05.390Z,1011.572815
2022-09-10T01:54:06.464Z,1011.541199
2022-09-10T01:56:09.788Z,1011.617676
2022-09-10T01:57:06.418Z,1011.621521
2022-09-10T01:58:11.872Z,1011.597229
2022-09-10T01:59:06.592Z,1011.601135
2022-09-10T02:01:07.020Z,1011.621521
2022-09-10T02:02:19.271Z,1011.621521
2022-09-10T02:03:13.011Z,1011.667297
2022-09-10T02:04:21.842Z,1011.61322
2022-09-10T02:06:16.095Z,1011.630005
2022-09-10T02:06:51.281Z,1011.515259
2022-09-10T02:07:50.127Z,1011.589661
2022-09-10T02:08:50.420Z,1011.697815
2022-09-10T02:10:59.952Z,1011.624695
2022-09-10T02:12:26.145Z,1011.735413
2022-09-10T02:13:37.014Z,1011.700684
2022-09-10T02:14:37.428Z,1011.780518
2022-09-10T02:16:35.859Z,1011.73877
2022-09-10T02:17:39.117Z,1011.729553
2022-09-10T02:18:34.586Z,1011.771301
2022-09-10T02:19:42.701Z,1011.754761
2022-09-10T02:20:39.453Z,1011.815613
2022-09-10T02:21:42.440Z,1011.748657
2022-09-10T02:22:37.193Z,1011.798035
2022-09-10T02:23:39.857Z,1011.798035
2022-09-10T02:24:36.693Z,1011.774841
2022-09-10T02:26:33.550Z,1011.782227
2022-09-10T02:27:29.763Z,1011.809326
2022-09-10T02:28:30.392Z,1011.786011
2022-09-10T02:29:26.501Z,1011.878418
2022-09-10T02:31:30.279Z,1011.834412
2022-09-10T02:32:29.551Z,1011.802856
2022-09-10T02:33:25.635Z,1011.7948
2022-09-10T02:34:30.998Z,1011.783508
2022-09-10T02:36:37.254Z,1011.780334
2022-09-10T02:37:29.900Z,1011.740784
2022-09-10T02:38:30.347Z,1011.721741
2022-09-10T02:39:27.793Z,1011.783508
2022-09-10T02:40:28.308Z,1011.730835
2022-09-10T02:41:26.593Z,1011.77771
2022-09-10T02:42:30.324Z,1011.704834
2022-09-10T02:43:23.537Z,1011.685425
2022-09-10T02:44:25.239Z,1011.669434
2022-09-10T02:45:24.243Z,1011.766418
2022-09-10T02:46:24.166Z,1011.781311
2022-09-10T02:47:20.496Z,1011.796082
2022-09-10T02:48:20.524Z,1011.718201
2022-09-10T02:49:21.507Z,1011.767822
2022-09-10T02:51:24.131Z,1011.721497
2022-09-10T02:52:57.326Z,1011.718262
2022-09-10T02:53:57.015Z,1011.744507
2022-09-10T02:54:56.123Z,1011.729797
2022-09-10T02:56:00.589Z,1011.619812
2022-09-10T02:56:59.561Z,1011.670105
2022-09-10T02:57:55.546Z,1011.658142
2022-09-10T02:59:26.063Z,1011.764404
2022-09-10T03:01:06.254Z,1011.70282
2022-09-10T03:02:09.662Z,1011.698303
2022-09-10T03:03:04.854Z,1011.728699
2022-09-10T03:04:05.208Z,1011.703857
2022-09-10T03:05:04.787Z,1011.734131
2022-09-10T03:06:00.323Z,1011.749878
2022-09-10T03:07:05.450Z,1011.680054
2022-09-10T03:08:02.719Z,1011.706055
2022-09-10T03:09:06.838Z,1011.723877
2022-09-10T03:11:01.646Z,1011.714783
2022-09-10T03:12:03.207Z,1011.667419
2022-09-10T03:12:58.283Z,1011.619995
2022-09-10T03:13:58.060Z,1011.720581
2022-09-10T03:14:53.361Z,1011.716125
2022-09-10T03:16:49.133Z,1011.695862
2022-09-10T03:17:54.353Z,1011.691223
2022-09-10T03:18:55.202Z,1011.737488
2022-09-10T03:19:49.948Z,1011.686523
2022-09-10T03:21:49.224Z,1011.775696
2022-09-10T03:22:52.030Z,1011.753296
2022-09-10T03:23:45.453Z,1011.765564
2022-09-10T03:24:47.195Z,1011.797241
2022-09-10T03:25:50.178Z,1011.708313
2022-09-10T03:26:45.180Z,1011.757935
2022-09-10T03:27:51.367Z,1011.813049
2022-09-10T03:28:49.070Z,1011.732666
2022-09-10T03:29:44.502Z,1011.818359
2022-09-10T03:30:47.484Z,1011.756897
2022-09-10T03:31:45.981Z,1011.732666
2022-09-10T03:32:41.201Z,1011.723572
2022-09-10T03:33:39.155Z,1011.738586
2022-09-10T03:34:38.795Z,1011.71051
2022-09-10T03:35:33.998Z,1011.683411
2022-09-10T03:36:34.295Z,1011.690125
2022-09-10T03:37:31.391Z,1011.720276
2022-09-10T03:38:31.530Z,1011.747253
2022-09-10T03:39:28.611Z,1011.69989
2022-09-10T03:40:34.379Z,1011.742737
2022-09-10T03:41:29.582Z,1011.70343
2022-09-10T03:42:31.949Z,1011.707092
2022-09-10T03:43:34.424Z,1011.746155
2022-09-10T03:44:27.088Z,1011.655029
2022-09-10T03:45:33.962Z,1011.664185
2022-09-10T03:46:28.530Z,1011.694641
2022-09-10T03:47:31.566Z,1011.663147
2022-09-10T03:48:29.819Z,1011.747253
2022-09-10T03:49:32.322Z,1011.758606
2022-09-10T03:50:29.068Z,1011.688721
2022-09-10T03:51:24.996Z,1011.715698
2022-09-10T03:52:27.207Z,1011.695801
2022-09-10T03:53:24.292Z,1011.675415
2022-09-10T03:54:26.750Z,1011.713806
2022-09-10T03:56:23.992Z,1011.709167
2022-09-10T03:57:26.243Z,1011.754822
2022-09-10T03:58:19.459Z,1011.801453
2022-09-10T03:59:21.249Z,1011.739075
2022-09-10T04:00:18.595Z,1011.720337
2022-09-10T04:01:21.482Z,1011.796814
2022-09-10T04:02:17.827Z,1011.711243
2022-09-10T04:03:17.948Z,1011.722412
2022-09-10T04:04:16.103Z,1011.737061
2022-09-10T04:05:19.691Z,1011.744934
2022-09-10T04:06:15.640Z,1011.756042
2022-09-10T04:07:18.643Z,1011.732544
2022-09-10T04:08:25.092Z,1011.740295
2022-09-10T04:09:29.879Z,1011.689575
2022-09-10T04:11:25.358Z,1011.705444
2022-09-10T04:12:30.282Z,1011.743652
2022-09-10T04:14:22.440Z,1011.698303
2022-09-10T04:15:03.956Z,1011.634644
2022-09-10T04:16:09.682Z,1011.68219
2022-09-10T04:17:09.897Z,1011.704651
2022-09-10T04:18:07.987Z,1011.630127
2022-09-10T04:19:08.978Z,1011.652527
2022-09-10T04:20:11.013Z,1011.594849
2022-09-10T04:21:08.166Z,1011.656006
2022-09-10T04:22:09.357Z,1011.617676
2022-09-10T04:23:09.360Z,1011.614807
2022-09-10T04:24:10.944Z,1011.540283
2022-09-10T04:25:57.563Z,1011.589905
2022-09-10T04:26:37.734Z,1011.624268
2022-09-10T04:27:36.298Z,1011.578613
2022-09-10T04:28:34.388Z,1011.592651
2022-09-10T04:29:43.766Z,1011.642212
2022-09-10T04:30:50.507Z,1011.623596
2022-09-10T04:31:54.339Z,1011.650635
2022-09-10T04:32:50.553Z,1011.661743
2022-09-10T04:33:49.077Z,1011.610535
2022-09-10T04:34:47.278Z,1011.641357
2022-09-10T04:36:43.436Z,1011.656006
2022-09-10T04:37:47.073Z,1011.638794
2022-09-10T04:38:43.602Z,1011.712158
2022-09-10T04:39:45.240Z,1011.73114
2022-09-10T04:41:56.492Z,1011.710693
2022-09-10T04:42:51.219Z,1011.741089
2022-09-10T04:43:48.780Z,1011.78717
2022-09-10T04:44:49.438Z,1011.671326
2022-09-10T04:46:47.728Z,1011.841125
2022-09-10T04:47:41.045Z,1011.790649
2022-09-10T04:48:44.906Z,1011.852417
2022-09-10T04:49:42.390Z,1011.963867
2022-09-10T04:50:59.349Z,1011.887451
2022-09-10T04:51:14.334Z,1011.887451
2022-09-10T04:51:14.675Z,1011.887451
2022-09-10T04:51:42.782Z,1011.838135
2022-09-10T04:52:41.843Z,1011.897827
2022-09-10T04:53:44.145Z,1011.894714
2022-09-10T04:54:42.484Z,1011.901306
2022-09-10T04:56:38.547Z,1011.947266
2022-09-10T04:57:40.713Z,1011.942627
2022-09-10T04:58:38.455Z,1011.880859
2022-09-10T04:58:39.399Z,1011.880859
2022-09-10T04:59:36.756Z,1011.958435
2022-09-10T05:01:31.638Z,1011.905823
2022-09-10T05:02:26.008Z,1011.917053
2022-09-10T05:03:28.730Z,1012.044128
2022-09-10T05:04:28.725Z,1011.912354
2022-09-10T05:06:31.626Z,1011.966492
2022-09-10T05:07:29.344Z,1011.963074
2022-09-10T05:08:24.513Z,1011.920288
2022-09-10T05:09:24.048Z,1011.942627
2022-09-10T05:10:19.243Z,1011.985413
2022-09-10T05:11:22.850Z,1011.953918
2022-09-10T05:12:18.026Z,1011.906555
2022-09-10T05:14:15.649Z,1011.951843
2022-09-10T05:14:48.363Z,1011.926208
2022-09-10T05:15:45.485Z,1011.86676
2022-09-10T05:16:50.382Z,1011.904968
2022-09-10T05:17:47.593Z,1011.849121
2022-09-10T05:18:46.856Z,1011.926208
2022-09-10T05:19:42.194Z,1011.924744
2022-09-10T05:21:39.180Z,1011.947266
2022-09-10T05:22:41.749Z,1011.985413
2022-09-10T05:23:37.181Z,1011.938049
2022-09-10T05:24:36.467Z,1011.914551
2022-09-10T05:25:34.380Z,1011.876221
2022-09-10T05:26:32.755Z,1011.914551
2022-09-10T05:27:37.903Z,1011.968628
2022-09-10T05:28:44.794Z,1011.94458
2022-09-10T05:29:39.769Z,1011.94458
2022-09-10T05:30:36.960Z,1011.964966
2022-09-10T05:31:36.033Z,1011.968628
2022-09-10T05:32:32.563Z,1011.987427
2022-09-10T05:33:37.248Z,1011.963867
2022-09-10T05:34:31.536Z,1012.029114
2022-09-10T05:36:28.329Z,1012.009888
2022-09-10T05:37:31.234Z,1012.086853
2022-09-10T05:38:27.437Z,1012.086853
2022-09-10T05:39:29.705Z,1012.071167
2022-09-10T05:40:29.743Z,1012.040283
2022-09-10T05:41:28.420Z,1012.059875
2022-09-10T05:42:26.955Z,1012.105591
2022-09-10T05:43:23.536Z,1012.086853
2022-09-10T05:44:23.331Z,1012.044128
2022-09-10T05:46:24.019Z,1012.110291
2022-09-10T05:47:19.214Z,1012.094421
2022-09-10T05:48:21.348Z,1012.083191
2022-09-10T05:49:17.614Z,1012.11792
2022-09-10T05:51:15.564Z,1012.095581
2022-09-10T05:52:16.493Z,1012.111328
2022-09-10T05:53:12.825Z,1012.141785
2022-09-10T05:54:16.932Z,1012.179993
2022-09-10T05:55:12.081Z,1012.157654
2022-09-10T05:56:13.739Z,1012.126038
2022-09-10T05:57:12.822Z,1012.063904
2022-09-10T05:58:12.771Z,1012.11792
2022-09-10T05:59:07.095Z,1012.110291
2022-09-10T06:01:53.056Z,1012.197144
2022-09-10T06:02:23.784Z,1012.187256
2022-09-10T06:02:24.258Z,1012.187256
2022-09-10T06:03:19.242Z,1012.143616
2022-09-10T06:04:19.739Z,1012.15564
2022-09-10T06:05:16.358Z,1012.233948
2022-09-10T06:06:20.152Z,1012.236694
2022-09-10T06:07:15.566Z,1012.189392
2022-09-10T06:08:17.890Z,1012.211792
2022-09-10T06:09:13.389Z,1012.223511
2022-09-10T06:10:13.353Z,1012.234741
2022-09-10T06:11:08.522Z,1012.226685
2022-09-10T06:12:07.215Z,1012.237915
2022-09-10T06:13:10.355Z,1012.268372
2022-09-10T06:14:02.950Z,1012.271545
2022-09-10T06:15:05.256Z,1012.244507
2022-09-10T06:15:59.718Z,1012.260376
2022-09-10T06:17:10.154Z,1012.287415
2022-09-10T06:18:05.388Z,1012.298645
2022-09-10T06:18:59.997Z,1012.260376
2022-09-10T06:19:59.628Z,1012.244507
2022-09-10T06:20:41.814Z,1012.287415
2022-09-10T06:21:40.785Z,1012.282715
2022-09-10T06:22:38.942Z,1012.216187
2022-09-10T06:23:35.377Z,1012.232178
2022-09-10T06:24:35.305Z,1012.254517
2022-09-10T06:26:34.400Z,1012.273499
2022-09-10T06:27:26.985Z,1012.319702
2022-09-10T06:28:34.202Z,1012.335571
2022-09-10T06:29:28.164Z,1012.308533
2022-09-10T06:30:30.802Z,1012.274902
2022-09-10T06:31:24.052Z,1012.309753
2022-09-10T06:32:26.055Z,1012.29071
2022-09-10T06:33:20.306Z,1012.333618
2022-09-10T06:34:23.539Z,1012.365234
2022-09-10T06:36:28.254Z,1012.405457
2022-09-10T06:37:23.463Z,1012.370972
2022-09-10T06:38:23.979Z,1012.346985
2022-09-10T06:39:20.751Z,1012.404663
2022-09-10T06:40:22.600Z,1012.466797
2022-09-10T06:41:17.755Z,1012.450928
2022-09-10T06:42:19.125Z,1012.450928
2022-09-10T06:43:14.093Z,1012.342773
2022-09-10T06:44:17.456Z,1012.354126
2022-09-10T06:46:40.714Z,1012.396851
2022-09-10T06:46:50.900Z,1012.396851
2022-09-10T06:47:01.715Z,1012.396851
2022-09-10T06:48:01.120Z,1012.319885
2022-09-10T06:48:38.249Z,1012.414795
2022-09-10T06:48:43.274Z,1012.414795
2022-09-10T06:49:17.599Z,1012.383667
2022-09-10T06:50:22.260Z,1012.324158
2022-09-10T06:51:19.341Z,1012.408813
2022-09-10T06:52:20.192Z,1012.38031
2022-09-10T06:54:57.929Z,1012.409912
2022-09-10T06:56:45.788Z,1012.398621
2022-09-10T06:57:45.966Z,1012.4245
2022-09-10T06:58:47.247Z,1012.426514
2022-09-10T06:59:46.896Z,1012.468018
2022-09-10T07:01:43.772Z,1012.478027
2022-09-10T07:02:41.982Z,1012.477173
2022-09-10T07:03:42.199Z,1012.483704
2022-09-10T07:04:38.189Z,1012.486633
2022-09-10T07:05:42.540Z,1012.459534
2022-09-10T07:06:37.887Z,1012.43634
2022-09-10T07:07:37.477Z,1012.470764
2022-09-10T07:08:35.663Z,1012.517395
2022-09-10T07:09:35.360Z,1012.443726
2022-09-10T07:10:30.890Z,1012.427917
2022-09-10T07:11:37.964Z,1012.46991
2022-09-10T07:11:41.561Z,1012.46991
2022-09-10T07:12:37.561Z,1012.447449
2022-09-10T07:13:36.816Z,1012.362732
2022-09-10T07:14:35.756Z,1012.463318
2022-09-10T07:15:39.286Z,1012.416687
2022-09-10T07:16:33.550Z,1012.501465
2022-09-10T07:17:33.710Z,1012.439697
2022-09-10T07:18:29.137Z,1012.497803
2022-09-10T07:19:29.810Z,1012.497803
2022-09-10T07:20:25.229Z,1012.521973
2022-09-10T07:21:30.052Z,1012.479065
2022-09-10T07:22:25.245Z,1012.521973
2022-09-10T07:23:27.953Z,1012.52478
2022-09-10T07:24:20.909Z,1012.467896
2022-09-10T07:26:21.347Z,1012.575989
2022-09-10T07:27:17.652Z,1012.560181
2022-09-10T07:28:23.199Z,1012.59845
2022-09-10T07:29:24.937Z,1012.520752
2022-09-10T07:31:14.656Z,1012.538635
2022-09-10T07:31:49.027Z,1012.603149
2022-09-10T07:32:49.080Z,1012.566284
2022-09-10T07:33:47.119Z,1012.556274
2022-09-10T07:34:46.967Z,1012.587891
2022-09-10T07:35:41.408Z,1012.580078
2022-09-10T07:36:39.269Z,1012.63739
2022-09-10T07:37:41.474Z,1012.625061
2022-09-10T07:38:40.802Z,1012.652039
2022-09-10T07:39:35.500Z,1012.615784
2022-09-10T07:40:35.289Z,1012.618958
2022-09-10T07:41:30.728Z,1012.638245
2022-09-10T07:42:31.590Z,1012.614929
2022-09-10T07:43:25.913Z,1012.660583
2022-09-10T07:44:26.133Z,1012.644836
2022-09-10T07:46:18.723Z,1012.633545
2022-09-10T07:47:21.848Z,1012.628906
2022-09-10T07:48:14.177Z,1012.664307
2022-09-10T07:49:15.878Z,1012.667175
2022-09-10T07:50:08.771Z,1012.694275
2022-09-10T07:51:08.850Z,1012.664307
2022-09-10T07:52:05.287Z,1012.718384
2022-09-10T07:53:04.620Z,1012.62616
2022-09-10T07:53:58.921Z,1012.752869
2022-09-10T07:55:02.528Z,1012.710022
2022-09-10T07:56:00.711Z,1012.723022
2022-09-10T07:57:03.626Z,1012.730408
2022-09-10T07:58:00.019Z,1012.657288
2022-09-10T07:59:03.356Z,1012.739624
2022-09-10T07:59:57.818Z,1012.785767
2022-09-10T08:01:02.551Z,1012.731689
2022-09-10T08:02:38.515Z,1012.706055
2022-09-10T08:05:22.699Z,1012.661987
2022-09-10T08:06:44.885Z,1012.617126
2022-09-10T08:07:39.764Z,1012.673462
2022-09-10T08:08:38.166Z,1012.69519
2022-09-10T08:09:34.640Z,1012.699585
2022-09-10T08:10:34.123Z,1012.65094
2022-09-10T08:11:27.752Z,1012.676636
2022-09-10T08:12:31.176Z,1012.713806
2022-09-10T08:13:24.360Z,1012.735168
2022-09-10T08:14:24.721Z,1012.745422
2022-09-10T08:16:16.285Z,1012.758728
2022-09-10T08:17:11.608Z,1012.771912
2022-09-10T08:18:10.526Z,1012.662842
2022-09-10T08:19:04.710Z,1012.692078
2022-09-10T08:20:02.328Z,1012.752686
2022-09-10T08:21:59.556Z,1012.731079
2022-09-10T08:22:54.835Z,1012.715332
2022-09-10T08:23:57.143Z,1012.725159
2022-09-10T08:24:52.405Z,1012.763306
2022-09-10T08:26:47.165Z,1012.812805
2022-09-10T08:27:43.416Z,1012.816223
2022-09-10T08:28:43.565Z,1012.796936
2022-09-10T08:29:37.767Z,1012.843201
2022-09-10T08:30:39.383Z,1012.823975
2022-09-10T08:31:30.429Z,1012.862244
2022-09-10T08:32:32.652Z,1012.843201
2022-09-10T08:33:23.697Z,1012.823975
2022-09-10T08:34:19.906Z,1012.85907
2022-09-10T08:36:17.180Z,1012.827454
2022-09-10T08:37:18.120Z,1012.827332
2022-09-10T08:38:09.152Z,1012.811523
2022-09-10T08:39:11.888Z,1012.835205
2022-09-10T08:40:03.390Z,1012.862244
2022-09-10T08:41:56.752Z,1012.876038
2022-09-10T08:42:58.069Z,1012.833252
2022-09-10T08:44:41.985Z,1012.820923
2022-09-10T08:45:24.057Z,1012.772949
2022-09-10T08:46:22.197Z,1012.79187
2022-09-10T08:47:21.453Z,1012.800232
2022-09-10T08:48:16.120Z,1012.830078
2022-09-10T08:49:15.973Z,1012.733154
2022-09-10T08:50:19.951Z,1012.736816
2022-09-10T08:51:22.473Z,1012.723816
2022-09-10T08:52:15.301Z,1012.735718
2022-09-10T08:53:14.754Z,1012.696899
2022-09-10T08:54:09.694Z,1012.738953
2022-09-10T08:55:09.109Z,1012.722961
2022-09-10T08:57:05.952Z,1012.734314
2022-09-10T08:58:02.478Z,1012.818848
2022-09-10T08:59:02.857Z,1012.837769
2022-09-10T08:59:57.677Z,1012.841309
2022-09-10T09:01:55.397Z,1012.779114
2022-09-10T09:02:54.498Z,1012.739746
2022-09-10T09:03:49.135Z,1012.774536
2022-09-10T09:04:51.486Z,1012.771301
2022-09-10T09:06:46.717Z,1012.710693
2022-09-10T09:07:39.022Z,1012.72644
2022-09-10T09:08:41.287Z,1012.630676
2022-09-10T09:09:33.171Z,1012.646484
2022-09-10T09:10:35.463Z,1012.739746
2022-09-10T09:11:27.587Z,1012.678162
2022-09-10T09:12:31.302Z,1012.6203
2022-09-10T09:13:24.632Z,1012.647339
2022-09-10T09:14:26.630Z,1012.690186
2022-09-10T09:15:19.223Z,1012.636108
2022-09-10T09:16:23.431Z,1012.660339
2022-09-10T09:17:15.976Z,1012.640686
2022-09-10T09:18:17.271Z,1012.660339
2022-09-10T09:19:11.568Z,1012.525146
2022-09-10T09:20:10.702Z,1012.597961
2022-09-10T09:22:09.705Z,1012.594971
2022-09-10T09:23:05.050Z,1012.575439
2022-09-10T09:24:13.083Z,1012.526001
2022-09-10T09:24:13.576Z,1012.526001
2022-09-10T09:24:14.142Z,1012.526001
2022-09-10T09:25:01.770Z,1012.473572
2022-09-10T09:25:59.946Z,1012.513794
2022-09-10T09:27:01.738Z,1012.518433
2022-09-10T09:27:54.040Z,1012.577148
2022-09-10T09:28:55.753Z,1012.554565
2022-09-10T09:29:51.275Z,1012.524353
2022-09-10T09:31:48.702Z,1012.528809
2022-09-10T09:32:49.986Z,1012.520813
2022-09-10T09:33:44.593Z,1012.474792
2022-09-10T09:34:46.963Z,1012.498291
2022-09-10T09:35:39.904Z,1012.532898
2022-09-10T09:36:40.120Z,1012.548767
2022-09-10T09:37:34.976Z,1012.532898
2022-09-10T09:38:59.431Z,1012.528809
2022-09-10T09:39:39.735Z,1012.460144
2022-09-10T09:41:36.562Z,1012.580322
2022-09-10T09:42:46.392Z,1012.591553
2022-09-10T09:43:37.569Z,1012.521729
2022-09-10T09:44:38.520Z,1012.548767
2022-09-10T09:45:34.034Z,1012.502991
2022-09-10T09:46:34.346Z,1012.536743
2022-09-10T09:47:29.708Z,1012.574951
2022-09-10T09:48:33.152Z,1012.581543
2022-09-10T09:49:26.298Z,1012.546814
2022-09-10T09:50:26.466Z,1012.554565
2022-09-10T09:51:22.033Z,1012.519714
2022-09-10T09:52:24.526Z,1012.523071
2022-09-10T09:53:25.715Z,1012.475586
2022-09-10T09:55:03.197Z,1012.614197
2022-09-10T09:55:10.253Z,1012.614197
2022-09-10T09:55:12.544Z,1012.614197
2022-09-10T09:55:41.399Z,1012.491333
2022-09-10T09:56:38.831Z,1012.515076
2022-09-10T09:57:39.942Z,1012.461121
2022-09-10T09:58:35.196Z,1012.486755
2022-09-10T09:59:40.577Z,1012.474243
2022-09-10T10:00:35.918Z,1012.447266
2022-09-10T10:01:35.757Z,1012.43158
2022-09-10T10:02:32.428Z,1012.354126
2022-09-10T10:03:37.686Z,1012.43811
2022-09-10T10:04:38.968Z,1012.325378
2022-09-10T10:04:42.224Z,1012.325378
2022-09-10T10:06:34.692Z,1012.390747
2022-09-10T10:07:42.180Z,1012.302185
2022-09-10T10:08:35.211Z,1012.437378
2022-09-10T10:09:38.068Z,1012.417786
2022-09-10T10:10:30.672Z,1012.437378
2022-09-10T10:11:31.962Z,1012.356262
2022-09-10T10:12:29.943Z,1012.413147
2022-09-10T10:13:35.073Z,1012.451416
2022-09-10T10:14:34.668Z,1012.43103
2022-09-10T10:15:35.639Z,1012.404053
2022-09-10T10:17:11.879Z,1012.305481
2022-09-10T10:19:34.621Z,1012.318665
2022-09-10T10:20:13.783Z,1012.416382
2022-09-10T10:21:10.823Z,1012.27301
2022-09-10T10:22:10.918Z,1012.314209
2022-09-10T10:23:11.022Z,1012.341858
2022-09-10T10:24:10.907Z,1012.254089
2022-09-10T10:25:05.333Z,1012.367737
2022-09-10T10:26:06.303Z,1012.284851
2022-09-10T10:27:01.959Z,1012.289551
2022-09-10T10:28:00.097Z,1012.238037
2022-09-10T10:28:54.425Z,1012.26825
2022-09-10T10:29:51.539Z,1012.267212
2022-09-10T10:30:48.524Z,1012.292908
2022-09-10T10:31:48.882Z,1012.280518
2022-09-10T10:32:50.814Z,1012.27594
2022-09-10T10:33:52.055Z,1012.236816
2022-09-10T10:34:44.897Z,1012.332031
2022-09-10T10:35:44.409Z,1012.308838
2022-09-10T10:36:41.236Z,1012.277222
2022-09-10T10:37:38.893Z,1012.261475
2022-09-10T10:38:34.015Z,1012.318298
2022-09-10T10:39:33.019Z,1012.341248
2022-09-10T10:41:30.355Z,1012.368408
2022-09-10T10:42:23.083Z,1012.368408
2022-09-10T10:43:23.861Z,1012.349182
2022-09-10T10:44:14.568Z,1012.411255
2022-09-10T10:45:17.266Z,1012.357178
2022-09-10T10:46:12.006Z,1012.415344
2022-09-10T10:47:08.081Z,1012.469299
2022-09-10T10:48:02.188Z,1012.288452
2022-09-10T10:49:03.569Z,1012.280151
2022-09-10T10:49:57.060Z,1012.388367
2022-09-10T10:50:53.024Z,1012.446838
2022-09-10T10:51:47.743Z,1012.338745
2022-09-10T10:52:49.163Z,1012.392761
2022-09-10T10:53:40.893Z,1012.428162
2022-09-10T10:54:36.383Z,1012.338745
2022-09-10T10:56:46.287Z,1012.4245
2022-09-10T10:57:12.443Z,1012.411133
2022-09-10T10:58:11.032Z,1012.413574
2022-09-10T10:59:11.017Z,1012.422852
2022-09-10T11:00:08.608Z,1012.472351
2022-09-10T11:02:05.687Z,1012.41687
2022-09-10T11:03:03.680Z,1012.43927
2022-09-10T11:03:59.598Z,1012.399902
2022-09-10T11:04:59.398Z,1012.372864
2022-09-10T11:06:56.603Z,1012.492249
2022-09-10T11:07:52.242Z,1012.387817
2022-09-10T11:08:55.444Z,1012.453125
2022-09-10T11:09:47.786Z,1012.352478
2022-09-10T11:10:45.917Z,1012.406494
2022-09-10T11:11:44.581Z,1012.422241
2022-09-10T11:12:40.029Z,1012.403564
2022-09-10T11:13:37.587Z,1012.414917
2022-09-10T11:14:39.326Z,1012.403564
2022-09-10T11:15:38.537Z,1012.411133
2022-09-10T11:16:40.296Z,1012.435242
2022-09-10T11:17:35.219Z,1012.339172
2022-09-10T11:18:34.163Z,1012.448364
2022-09-10T11:19:37.141Z,1012.386597
2022-09-10T11:20:30.563Z,1012.418213
2022-09-10T11:21:32.819Z,1012.398865
2022-09-10T11:22:29.377Z,1012.353943
2022-09-10T11:23:31.739Z,1012.380981
2022-09-10T11:24:24.602Z,1012.388977
2022-09-10T11:25:21.874Z,1012.315674
2022-09-10T11:26:19.278Z,1012.37793
2022-09-10T11:27:16.165Z,1012.412598
2022-09-10T11:29:00.440Z,1012.434021
2022-09-10T11:29:40.613Z,1012.371216
2022-09-10T11:30:38.071Z,1012.410583
2022-09-10T11:31:35.143Z,1012.287903
2022-09-10T11:32:37.278Z,1012.244934
2022-09-10T11:33:29.613Z,1012.306885